Williams, OR

7:17 AM PST on November 28, 2014 (GMT -0800)
Sexton Summit | Change Station
CLOSE
Current Station
Airport
Location: Sexton Summit,
Elevation: 3839 ft
Nearby Weather Stations

Elev 3839 ft 42.60 °N, 123.36 °W | Updated 2 minutes ago

Rain
Rain
39 °F
Feels Like 31 °F
N
15
Wind Variable Wind from SSE

Today
High -- | Low -- °F
--% Chance of Precip.
Yesterday
High -- | Low -- °F
Precip. -- in
7:19 AM 4:42 PM
Waxing Crescent, 41% visible
Pressure 29.79 in
Visibility 0.5 miles
Clouds Mostly Cloudy 1600 ft
Overcast 3500 ft
Windchill 31 °F
Dew Point 38 °F
Humidity 96%
Rainfall 0.36 in
Snow Depth Not available.
UV 0 out of 12
Pollen .30 out of 12
Air Quality Not available.
Flu Activity Not available.
SPECI KSXT 281515Z AUTO 16013KT 1/2SM -RA FG BKN016 OVC035 04/03 A2979 RMK AO2 P0006 T00390033

More Conditions Fewer Conditions

Pressure 29.79 in
Visibility 0.5 miles
Clouds Mostly Cloudy 1600 ft
Overcast 3500 ft
Windchill 31 °F
Dew Point 38 °F
Humidity 96%
Rainfall 0.36 in
Snow Depth Not available.
UV 0 out of 12
Pollen .30 out of 12
Air Quality Not available.
Flu Activity Not available.
SPECI KSXT 281515Z AUTO 16013KT 1/2SM -RA FG BKN016 OVC035 04/03 A2979 RMK AO2 P0006 T00390033

More Conditions Fewer Conditions

10-Day Weather Forecast

Almanac

Astronomy

Nov. 28, 2014 Rise Set
Actual Time
Civil Twilight
Nautical Twilight
Astronomical Twilight
Moon
Length of Visible Light
Length of Day
Tomorrow will be .
, % of the Moon is Illuminated

Today's Extremes

State Highs State Lows

Community

WunderPhotos

Upload Photos

1,774,227 photos uploaded!

WunderBlogs® & News

Nearby

Air Quality

  Air Quality AQ Index Pollutant
Not available.

Snow Depth

Station Depth Elevation

Earthquake Activity

City Distance Mag. Time & Date
Minimum magnitude displayed is 2.5.

Coastal Water Temperatures

Place Temperature

Nearby Weather Stations